^^
Saratoga-Weather Station Historical Data
Daily Summary for March 8, 2020 Units:  Both    English   Metric
Daily Weekly Monthly Yearly Custom
  High: Low: Average:
Temperature: 80.8 °F /  27.1 °C 47.7 °F /  8.7 °C 63.1 °F /  17.3 °C
Dew Point: 53.2 °F /  11.8 °C 44.2 °F /  6.8 °C 48.4 °F /  9.1 °C
Humidity: 90% 32% 63%
Wind Speed: 7mph /  11.3km/h - 1mph /  1.6km/h
Wind Gust: 10mph /  16.1km/h - -
Wind- - SSW
Pressure: 30.3 in /  1026.8 hPa 30.2 in /  1023.7 hPa -
Precipitation: 0 in /  0.0 mm    
Historical Graphs
 
 
Tabular Data for March 8, 2020
Time Temperature Dew Point Pressure Wind Wind Speed Wind Gust Humidity Rainfall Rate (Hourly) solar
00:02 55.2 °F /  12.9 °C 45.7 °F /  7.6 °C 30.3in /  1024.4hPa Calm     70% 0in /  0.0mm 0 W/m2
00:07 55 °F /  12.8 °C 45.5 °F /  7.5 °C 30.3in /  1024.4hPa Calm   1mph /  1.6km/h 70% 0in /  0.0mm 0 W/m2
00:12 54.9 °F /  12.7 °C 45.3 °F /  7.4 °C 30.3in /  1024.4hPa Calm     70% 0in /  0.0mm 0 W/m2
00:17 54.7 °F /  12.6 °C 45.5 °F /  7.5 °C 30.3in /  1024.4hPa Calm     71% 0in /  0.0mm 0 W/m2
00:22 54.3 °F /  12.4 °C 45.1 °F /  7.3 °C 30.3in /  1024.7hPa Calm   1mph /  1.6km/h 71% 0in /  0.0mm 0 W/m2
00:27 54.1 °F /  12.3 °C 45.3 °F /  7.4 °C 30.3in /  1024.7hPa Calm     72% 0in /  0.0mm 0 W/m2
00:32 54.1 °F /  12.3 °C 45.3 °F /  7.4 °C 30.3in /  1024.7hPa Calm     72% 0in /  0.0mm 0 W/m2
00:37 54 °F /  12.2 °C 45.5 °F /  7.5 °C 30.3in /  1024.7hPa Calm   1mph /  1.6km/h 73% 0in /  0.0mm 0 W/m2
00:42 53.8 °F /  12.1 °C 45.3 °F /  7.4 °C 30.3in /  1024.7hPa Calm     73% 0in /  0.0mm 0 W/m2
00:47 53.6 °F /  12 °C 45.5 °F /  7.5 °C 30.3in /  1024.7hPa Calm     74% 0in /  0.0mm 0 W/m2
00:52 53.4 °F /  11.9 °C 45.3 °F /  7.4 °C 30.3in /  1024.7hPa Calm     74% 0in /  0.0mm 0 W/m2
00:57 53.2 °F /  11.8 °C 45.1 °F /  7.3 °C 30.3in /  1024.7hPa Calm     74% 0in /  0.0mm 0 W/m2
01:02 53.1 °F /  11.7 °C 45 °F /  7.2 °C 30.3in /  1024.7hPa Calm     74% 0in /  0.0mm 0 W/m2
01:07 52.9 °F /  11.6 °C 45.1 °F /  7.3 °C 30.3in /  1024.7hPa Calm     75% 0in /  0.0mm 0 W/m2
01:12 52.7 °F /  11.5 °C 45 °F /  7.2 °C 30.3in /  1024.7hPa Calm     75% 0in /  0.0mm 0 W/m2
01:17 52.5 °F /  11.4 °C 45.1 °F /  7.3 °C 30.3in /  1024.7hPa Calm     76% 0in /  0.0mm 0 W/m2
01:22 52.3 °F /  11.3 °C 45 °F /  7.2 °C 30.3in /  1025.1hPa Calm     76% 0in /  0.0mm 0 W/m2
01:27 52.3 °F /  11.3 °C 45.3 °F /  7.4 °C 30.3in /  1025.1hPa Calm     77% 0in /  0.0mm 0 W/m2
01:32 52.3 °F /  11.3 °C 45.3 °F /  7.4 °C 30.3in /  1025.1hPa Calm     77% 0in /  0.0mm 0 W/m2
01:37 52.3 °F /  11.3 °C 45.3 °F /  7.4 °C 30.3in /  1025.1hPa Calm     77% 0in /  0.0mm 0 W/m2
01:42 52.2 °F /  11.2 °C 45.1 °F /  7.3 °C 30.3in /  1025.1hPa Calm     77% 0in /  0.0mm 0 W/m2
01:47 52.2 °F /  11.2 °C 45.5 °F /  7.5 °C 30.3in /  1025.1hPa Calm     78% 0in /  0.0mm 0 W/m2
01:52 52 °F /  11.1 °C 45.3 °F /  7.4 °C 30.3in /  1024.7hPa Calm     78% 0in /  0.0mm 0 W/m2
01:57 51.6 °F /  10.9 °C 45 °F /  7.2 °C 30.3in /  1025.1hPa Calm     78% 0in /  0.0mm 0 W/m2
02:02 51.6 °F /  10.9 °C 45 °F /  7.2 °C 30.3in /  1025.1hPa Calm     78% 0in /  0.0mm 0 W/m2
02:07 51.4 °F /  10.8 °C 45.1 °F /  7.3 °C 30.3in /  1025.1hPa West 2mph /  3.2km/h 2mph /  3.2km/h 79% 0in /  0.0mm 0 W/m2
02:12 51.6 °F /  10.9 °C 45.3 °F /  7.4 °C 30.3in /  1025.1hPa Calm   1mph /  1.6km/h 79% 0in /  0.0mm 0 W/m2
02:17 51.6 °F /  10.9 °C 45.3 °F /  7.4 °C 30.3in /  1025.1hPa Calm     79% 0in /  0.0mm 0 W/m2
02:22 51.6 °F /  10.9 °C 45 °F /  7.2 °C 30.3in /  1025.1hPa Calm   1mph /  1.6km/h 78% 0in /  0.0mm 0 W/m2
02:27 51.4 °F /  10.8 °C 45.1 °F /  7.3 °C 30.3in /  1025.1hPa Calm     79% 0in /  0.0mm 0 W/m2
02:32 51.3 °F /  10.7 °C 45 °F /  7.2 °C 30.3in /  1025.1hPa Calm   1mph /  1.6km/h 79% 0in /  0.0mm 0 W/m2
02:37 51.3 °F /  10.7 °C 45 °F /  7.2 °C 30.3in /  1025.1hPa Calm     79% 0in /  0.0mm 0 W/m2
02:42 51.3 °F /  10.7 °C 45 °F /  7.2 °C 30.3in /  1025.1hPa Calm   1mph /  1.6km/h 79% 0in /  0.0mm 0 W/m2
02:47 51.1 °F /  10.6 °C 45.1 °F /  7.3 °C 30.3in /  1025.1hPa Calm     80% 0in /  0.0mm 0 W/m2
02:52 50.9 °F /  10.5 °C 45 °F /  7.2 °C 30.3in /  1025.1hPa Calm     80% 0in /  0.0mm 0 W/m2
02:57 50.7 °F /  10.4 °C 44.8 °F /  7.1 °C 30.3in /  1025.1hPa Calm     80% 0in /  0.0mm 0 W/m2
03:02 50.7 °F /  10.4 °C 44.8 °F /  7.1 °C 30.3in /  1025.1hPa Calm     80% 0in /  0.0mm 0 W/m2
03:07 50.5 °F /  10.3 °C 45 °F /  7.2 °C 30.3in /  1025.1hPa Calm     81% 0in /  0.0mm 0 W/m2
03:12 50.4 °F /  10.2 °C 44.8 °F /  7.1 °C 30.3in /  1025.1hPa Calm     81% 0in /  0.0mm 0 W/m2
03:17 50.4 °F /  10.2 °C 44.8 °F /  7.1 °C 30.3in /  1025.1hPa Calm     81% 0in /  0.0mm 0 W/m2
03:22 50.4 °F /  10.2 °C 44.8 °F /  7.1 °C 30.3in /  1025.1hPa Calm     81% 0in /  0.0mm 0 W/m2
03:27 50.4 °F /  10.2 °C 45.1 °F /  7.3 °C 30.3in /  1025.1hPa Calm     82% 0in /  0.0mm 0 W/m2
03:32 50.4 °F /  10.2 °C 45.1 °F /  7.3 °C 30.3in /  1025.1hPa Calm     82% 0in /  0.0mm 0 W/m2
03:37 50.4 °F /  10.2 °C 45.1 °F /  7.3 °C 30.3in /  1025.1hPa West 0.9mph /  1.4km/h 2mph /  3.2km/h 82% 0in /  0.0mm 0 W/m2
03:42 50.7 °F /  10.4 °C 45.5 °F /  7.5 °C 30.3in /  1025.1hPa Calm     82% 0in /  0.0mm 0 W/m2
03:47 50.9 °F /  10.5 °C 45.3 °F /  7.4 °C 30.3in /  1025.1hPa Calm     81% 0in /  0.0mm 0 W/m2
03:52 50.9 °F /  10.5 °C 45.3 °F /  7.4 °C 30.3in /  1025.1hPa Calm     81% 0in /  0.0mm 0 W/m2
03:57 50.7 °F /  10.4 °C 45.1 °F /  7.3 °C 30.3in /  1025.1hPa Calm     81% 0in /  0.0mm 0 W/m2
04:02 50.5 °F /  10.3 °C 45 °F /  7.2 °C 30.3in /  1025.1hPa Calm     81% 0in /  0.0mm 0 W/m2
04:07 50.4 °F /  10.2 °C 44.8 °F /  7.1 °C 30.3in /  1025.1hPa Calm     81% 0in /  0.0mm 0 W/m2
04:12 50.2 °F /  10.1 °C 45 °F /  7.2 °C 30.3in /  1025.1hPa Calm     82% 0in /  0.0mm 0 W/m2
04:17 49.8 °F /  9.9 °C 44.6 °F /  7 °C 30.3in /  1025.1hPa Calm     82% 0in /  0.0mm 0 W/m2
04:22 49.6 °F /  9.8 °C 44.8 °F /  7.1 °C 30.3in /  1025.1hPa Calm     83% 0in /  0.0mm 0 W/m2
04:27 49.6 °F /  9.8 °C 44.8 °F /  7.1 °C 30.3in /  1025.1hPa Calm     83% 0in /  0.0mm 0 W/m2
04:32 49.5 °F /  9.7 °C 44.8 °F /  7.1 °C 30.3in /  1025.1hPa Calm     84% 0in /  0.0mm 0 W/m2
04:37 49.3 °F /  9.6 °C 44.6 °F /  7 °C 30.3in /  1025.1hPa Calm     84% 0in /  0.0mm 0 W/m2
04:42 49.1 °F /  9.5 °C 44.4 °F /  6.9 °C 30.3in /  1025.1hPa Calm     84% 0in /  0.0mm 0 W/m2
04:47 48.9 °F /  9.4 °C 44.6 °F /  7 °C 30.3in /  1025.1hPa Calm     85% 0in /  0.0mm 0 W/m2
04:52 48.9 °F /  9.4 °C 44.6 °F /  7 °C 30.3in /  1025.1hPa Calm     85% 0in /  0.0mm 0 W/m2
04:57 48.7 °F /  9.3 °C 44.4 °F /  6.9 °C 30.3in /  1025.1hPa Calm     85% 0in /  0.0mm 0 W/m2
05:02 48.7 °F /  9.3 °C 44.4 °F /  6.9 °C 30.3in /  1025.1hPa Calm     85% 0in /  0.0mm 0 W/m2
05:07 48.6 °F /  9.2 °C 44.6 °F /  7 °C 30.3in /  1025.1hPa Calm     86% 0in /  0.0mm 0 W/m2
05:12 48.6 °F /  9.2 °C 44.6 °F /  7 °C 30.3in /  1025.1hPa Calm     86% 0in /  0.0mm 0 W/m2
05:17 48.4 °F /  9.1 °C 44.4 °F /  6.9 °C 30.3in /  1025.1hPa Calm     86% 0in /  0.0mm 0 W/m2
05:22 48.4 °F /  9.1 °C 44.4 °F /  6.9 °C 30.3in /  1025.1hPa Calm     86% 0in /  0.0mm 0 W/m2
05:27 48.2 °F /  9 °C 44.2 °F /  6.8 °C 30.3in /  1025.1hPa Calm     86% 0in /  0.0mm 0 W/m2
05:32 48.2 °F /  9 °C 44.2 °F /  6.8 °C 30.3in /  1025.1hPa Calm     86% 0in /  0.0mm 0 W/m2
05:37 48 °F /  8.9 °C 44.4 °F /  6.9 °C 30.3in /  1025.1hPa Calm     87% 0in /  0.0mm 0 W/m2
05:42 48 °F /  8.9 °C 44.6 °F /  7 °C 30.3in /  1025.1hPa Calm     88% 0in /  0.0mm 0 W/m2
05:47 48 °F /  8.9 °C 44.6 °F /  7 °C 30.3in /  1025.1hPa Calm     88% 0in /  0.0mm 0 W/m2
05:52 47.8 °F /  8.8 °C 44.4 °F /  6.9 °C 30.3in /  1025.1hPa Calm     88% 0in /  0.0mm 0 W/m2
05:57 47.8 °F /  8.8 °C 44.4 °F /  6.9 °C 30.3in /  1025.1hPa Calm     88% 0in /  0.0mm 0 W/m2
06:02 47.8 °F /  8.8 °C 44.4 °F /  6.9 °C 30.3in /  1025.4hPa Calm     88% 0in /  0.0mm 0 W/m2
06:07 47.7 °F /  8.7 °C 44.6 °F /  7 °C 30.3in /  1025.4hPa Calm     89% 0in /  0.0mm 0 W/m2
06:12 47.7 °F /  8.7 °C 44.6 °F /  7 °C 30.3in /  1025.4hPa Calm     89% 0in /  0.0mm 0 W/m2
06:17 47.7 °F /  8.7 °C 44.6 °F /  7 °C 30.3in /  1025.4hPa Calm     89% 0in /  0.0mm 0 W/m2
06:22 47.7 °F /  8.7 °C 44.6 °F /  7 °C 30.3in /  1025.4hPa Calm     89% 0in /  0.0mm 0 W/m2
06:27 47.8 °F /  8.8 °C 44.8 °F /  7.1 °C 30.3in /  1025.7hPa Calm     89% 0in /  0.0mm 0 W/m2
06:32 47.8 °F /  8.8 °C 44.8 °F /  7.1 °C 30.3in /  1025.7hPa Calm     89% 0in /  0.0mm 0 W/m2
06:42 47.8 °F /  8.8 °C 44.8 °F /  7.1 °C 30.3in /  1025.7hPa Calm     89% 0in /  0.0mm 0 W/m2
06:47 47.8 °F /  8.8 °C 44.8 °F /  7.1 °C 30.3in /  1025.7hPa Calm     89% 0in /  0.0mm 0 W/m2
06:52 47.8 °F /  8.8 °C 44.8 °F /  7.1 °C 30.3in /  1025.7hPa Calm     89% 0in /  0.0mm 0 W/m2
06:57 47.8 °F /  8.8 °C 44.8 °F /  7.1 °C 30.3in /  1025.7hPa Calm     89% 0in /  0.0mm 0 W/m2
07:02 47.8 °F /  8.8 °C 44.8 °F /  7.1 °C 30.3in /  1025.7hPa Calm     89% 0in /  0.0mm 0 W/m2
07:07 47.8 °F /  8.8 °C 44.8 °F /  7.1 °C 30.3in /  1025.7hPa Calm     89% 0in /  0.0mm 5 W/m2
07:12 47.7 °F /  8.7 °C 44.6 °F /  7 °C 30.3in /  1025.7hPa Calm     89% 0in /  0.0mm 7 W/m2
07:17 47.7 °F /  8.7 °C 45 °F /  7.2 °C 30.3in /  1025.7hPa Calm     90% 0in /  0.0mm 7 W/m2
07:22 47.8 °F /  8.8 °C 45 °F /  7.2 °C 30.3in /  1025.7hPa Calm     90% 0in /  0.0mm 9 W/m2
07:27 47.8 °F /  8.8 °C 45 °F /  7.2 °C 30.3in /  1025.7hPa Calm     90% 0in /  0.0mm 11 W/m2
07:32 47.8 °F /  8.8 °C 45 °F /  7.2 °C 30.3in /  1025.7hPa Calm     90% 0in /  0.0mm 12 W/m2
07:37 47.8 °F /  8.8 °C 45 °F /  7.2 °C 30.3in /  1025.7hPa Calm     90% 0in /  0.0mm 14 W/m2
07:42 47.8 °F /  8.8 °C 45 °F /  7.2 °C 30.3in /  1026.1hPa Calm     90% 0in /  0.0mm 14 W/m2
07:47 47.8 °F /  8.8 °C 45 °F /  7.2 °C 30.3in /  1026.1hPa Calm     90% 0in /  0.0mm 16 W/m2
07:52 48 °F /  8.9 °C 45.1 °F /  7.3 °C 30.3in /  1025.7hPa Calm     90% 0in /  0.0mm 16 W/m2
07:57 48.4 °F /  9.1 °C 45.5 °F /  7.5 °C 30.3in /  1026.1hPa Calm     90% 0in /  0.0mm 18 W/m2
08:02 48.6 °F /  9.2 °C 45.7 °F /  7.6 °C 30.3in /  1026.1hPa Calm     90% 0in /  0.0mm 18 W/m2
08:07 48.7 °F /  9.3 °C 45.9 °F /  7.7 °C 30.3in /  1026.1hPa Calm     90% 0in /  0.0mm 19 W/m2
08:12 49.1 °F /  9.5 °C 46.2 °F /  7.9 °C 30.3in /  1026.1hPa Calm   1mph /  1.6km/h 90% 0in /  0.0mm 21 W/m2
08:17 49.6 °F /  9.8 °C 46.6 °F /  8.1 °C 30.3in /  1026.1hPa Calm   1mph /  1.6km/h 89% 0in /  0.0mm 30 W/m2
08:22 50 °F /  10 °C 46.9 °F /  8.3 °C 30.3in /  1026.1hPa NE 0.9mph /  1.4km/h 2mph /  3.2km/h 89% 0in /  0.0mm 65 W/m2
08:27 50.5 °F /  10.3 °C 46.8 °F /  8.2 °C 30.3in /  1026.1hPa NE 2mph /  3.2km/h 2mph /  3.2km/h 87% 0in /  0.0mm 65 W/m2
08:32 51.3 °F /  10.7 °C 47.3 °F /  8.5 °C 30.3in /  1026.1hPa NE 0.9mph /  1.4km/h 2mph /  3.2km/h 86% 0in /  0.0mm 118 W/m2
08:37 51.8 °F /  11 °C 47.5 °F /  8.6 °C 30.3in /  1026.1hPa NE 2mph /  3.2km/h 2mph /  3.2km/h 85% 0in /  0.0mm 156 W/m2
08:42 52.3 °F /  11.3 °C 47.7 °F /  8.7 °C 30.3in /  1026.1hPa NE 2mph /  3.2km/h 2mph /  3.2km/h 84% 0in /  0.0mm 171 W/m2
08:47 52.7 °F /  11.5 °C 47.7 °F /  8.7 °C 30.3in /  1026.1hPa ENE 2mph /  3.2km/h 3mph /  4.8km/h 83% 0in /  0.0mm 190 W/m2
08:52 53.1 °F /  11.7 °C 47.7 °F /  8.7 °C 30.3in /  1026.1hPa East 2mph /  3.2km/h 2mph /  3.2km/h 82% 0in /  0.0mm 209 W/m2
08:57 53.4 °F /  11.9 °C 48 °F /  8.9 °C 30.3in /  1026.4hPa East 0.9mph /  1.4km/h 1mph /  1.6km/h 82% 0in /  0.0mm 178 W/m2
09:02 53.8 °F /  12.1 °C 48.4 °F /  9.1 °C 30.3in /  1026.4hPa NE 0.9mph /  1.4km/h 3mph /  4.8km/h 82% 0in /  0.0mm 28 W/m2
09:07 54.1 °F /  12.3 °C 48 °F /  8.9 °C 30.3in /  1026.4hPa ENE 0.9mph /  1.4km/h 3mph /  4.8km/h 80% 0in /  0.0mm 81 W/m2
09:12 54.5 °F /  12.5 °C 48.4 °F /  9.1 °C 30.3in /  1026.4hPa NE 2mph /  3.2km/h 2mph /  3.2km/h 80% 0in /  0.0mm 262 W/m2
09:17 54.9 °F /  12.7 °C 48.7 °F /  9.3 °C 30.3in /  1026.8hPa NE 0.9mph /  1.4km/h 2mph /  3.2km/h 80% 0in /  0.0mm 260 W/m2
09:22 55.2 °F /  12.9 °C 48.7 °F /  9.3 °C 30.3in /  1026.8hPa NE 0.9mph /  1.4km/h 2mph /  3.2km/h 79% 0in /  0.0mm 153 W/m2
09:27 55.8 °F /  13.2 °C 48.9 °F /  9.4 °C 30.3in /  1026.4hPa NE 2mph /  3.2km/h 2mph /  3.2km/h 78% 0in /  0.0mm 32 W/m2
09:32 56.5 °F /  13.6 °C 49.3 °F /  9.6 °C 30.3in /  1026.8hPa East 2mph /  3.2km/h 3mph /  4.8km/h 77% 0in /  0.0mm 33 W/m2
09:37 57.4 °F /  14.1 °C 49.5 °F /  9.7 °C 30.3in /  1026.8hPa East 2mph /  3.2km/h 2mph /  3.2km/h 75% 0in /  0.0mm 33 W/m2
09:42 58.1 °F /  14.5 °C 49.8 °F /  9.9 °C 30.3in /  1026.8hPa ENE 2mph /  3.2km/h 3mph /  4.8km/h 74% 0in /  0.0mm 33 W/m2
09:47 58.6 °F /  14.8 °C 49.6 °F /  9.8 °C 30.3in /  1026.8hPa ENE 0.9mph /  1.4km/h 4mph /  6.4km/h 72% 0in /  0.0mm 33 W/m2
09:52 58.8 °F /  14.9 °C 50.2 °F /  10.1 °C 30.3in /  1026.8hPa ENE 0.9mph /  1.4km/h 2mph /  3.2km/h 73% 0in /  0.0mm 33 W/m2
09:57 59.2 °F /  15.1 °C 50.2 °F /  10.1 °C 30.3in /  1026.8hPa NE 2.9mph /  4.7km/h 3mph /  4.8km/h 72% 0in /  0.0mm 33 W/m2
10:02 59.5 °F /  15.3 °C 50.5 °F /  10.3 °C 30.3in /  1026.8hPa NNE 0.9mph /  1.4km/h 3mph /  4.8km/h 72% 0in /  0.0mm 33 W/m2
10:07 60.3 °F /  15.7 °C 50.9 °F /  10.5 °C 30.3in /  1026.8hPa Calm   1mph /  1.6km/h 71% 0in /  0.0mm 33 W/m2
10:12 60.6 °F /  15.9 °C 50.7 °F /  10.4 °C 30.3in /  1026.8hPa ENE 2mph /  3.2km/h 4mph /  6.4km/h 70% 0in /  0.0mm 33 W/m2
10:17 61.2 °F /  16.2 °C 51.3 °F /  10.7 °C 30.3in /  1026.8hPa NE 2mph /  3.2km/h 3mph /  4.8km/h 70% 0in /  0.0mm 33 W/m2
10:22 61.5 °F /  16.4 °C 51.3 °F /  10.7 °C 30.3in /  1026.8hPa East 0.9mph /  1.4km/h 2mph /  3.2km/h 69% 0in /  0.0mm 35 W/m2
10:27 62.2 °F /  16.8 °C 51.6 °F /  10.9 °C 30.3in /  1026.8hPa NE 2mph /  3.2km/h 2mph /  3.2km/h 68% 0in /  0.0mm 35 W/m2
10:32 62.8 °F /  17.1 °C 51.6 °F /  10.9 °C 30.3in /  1026.8hPa ENE 2mph /  3.2km/h 4mph /  6.4km/h 67% 0in /  0.0mm 35 W/m2
10:38 63.3 °F /  17.4 °C 51.8 °F /  11 °C 30.3in /  1026.8hPa Calm   4mph /  6.4km/h 66% 0in /  0.0mm 35 W/m2
10:43 63.9 °F /  17.7 °C 51.8 °F /  11 °C 30.3in /  1026.8hPa NE 2mph /  3.2km/h 4mph /  6.4km/h 65% 0in /  0.0mm 35 W/m2
10:48 64.4 °F /  18 °C 52 °F /  11.1 °C 30.3in /  1026.8hPa ESE 2.9mph /  4.7km/h 6mph /  9.7km/h 64% 0in /  0.0mm 37 W/m2
10:53 64.9 °F /  18.3 °C 52.5 °F /  11.4 °C 30.3in /  1026.8hPa Calm   2mph /  3.2km/h 64% 0in /  0.0mm 37 W/m2
10:58 65.7 °F /  18.7 °C 52.3 °F /  11.3 °C 30.3in /  1026.8hPa ESE 2.9mph /  4.7km/h 4mph /  6.4km/h 62% 0in /  0.0mm 40 W/m2
11:03 66 °F /  18.9 °C 52.2 °F /  11.2 °C 30.3in /  1026.8hPa ENE 2mph /  3.2km/h 3mph /  4.8km/h 61% 0in /  0.0mm 42 W/m2
11:08 66.6 °F /  19.2 °C 52.2 °F /  11.2 °C 30.3in /  1026.8hPa East 2mph /  3.2km/h 3mph /  4.8km/h 60% 0in /  0.0mm 42 W/m2
11:13 66.9 °F /  19.4 °C 52.2 °F /  11.2 °C 30.3in /  1026.8hPa NNE 2mph /  3.2km/h 3mph /  4.8km/h 59% 0in /  0.0mm 44 W/m2
11:18 67.3 °F /  19.6 °C 52.5 °F /  11.4 °C 30.3in /  1026.8hPa Calm   1mph /  1.6km/h 59% 0in /  0.0mm 46 W/m2
11:23 67.8 °F /  19.9 °C 52 °F /  11.1 °C 30.3in /  1026.8hPa East 0.9mph /  1.4km/h 4mph /  6.4km/h 57% 0in /  0.0mm 46 W/m2
11:28 68.4 °F /  20.2 °C 52 °F /  11.1 °C 30.3in /  1026.8hPa NE 2mph /  3.2km/h 5mph /  8km/h 56% 0in /  0.0mm 47 W/m2
11:33 68.7 °F /  20.4 °C 52 °F /  11.1 °C 30.3in /  1026.8hPa NNE 2.9mph /  4.7km/h 3mph /  4.8km/h 55% 0in /  0.0mm 76 W/m2
11:38 69.3 °F /  20.7 °C 51.4 °F /  10.8 °C 30.3in /  1026.8hPa ENE 2mph /  3.2km/h 4mph /  6.4km/h 53% 0in /  0.0mm 480 W/m2
11:43 69.4 °F /  20.8 °C 51.6 °F /  10.9 °C 30.3in /  1026.8hPa NE 4.9mph /  7.9km/h 5mph /  8km/h 53% 0in /  0.0mm 599 W/m2
11:48 70 °F /  21.1 °C 51.6 °F /  10.9 °C 30.3in /  1026.8hPa NE 4.9mph /  7.9km/h 6mph /  9.7km/h 52% 0in /  0.0mm 606 W/m2
11:53 70.2 °F /  21.2 °C 51.8 °F /  11 °C 30.3in /  1026.8hPa NE 4mph /  6.4km/h 4mph /  6.4km/h 52% 0in /  0.0mm 619 W/m2
11:58 70.7 °F /  21.5 °C 52.2 °F /  11.2 °C 30.3in /  1026.8hPa North 2mph /  3.2km/h 4mph /  6.4km/h 52% 0in /  0.0mm 629 W/m2
12:03 71.2 °F /  21.8 °C 51.6 °F /  10.9 °C 30.3in /  1026.8hPa ESE 0.9mph /  1.4km/h 4mph /  6.4km/h 50% 0in /  0.0mm 636 W/m2
12:08 72 °F /  22.2 °C 51.8 °F /  11 °C 30.3in /  1026.4hPa Calm   4mph /  6.4km/h 49% 0in /  0.0mm 649 W/m2
12:13 72.3 °F /  22.4 °C 51.4 °F /  10.8 °C 30.3in /  1026.4hPa WNW 2mph /  3.2km/h 2mph /  3.2km/h 48% 0in /  0.0mm 654 W/m2
12:19 72.7 °F /  22.6 °C 51.3 °F /  10.7 °C 30.3in /  1026.4hPa West 4mph /  6.4km/h 4mph /  6.4km/h 47% 0in /  0.0mm 661 W/m2
12:24 72 °F /  22.2 °C 50.7 °F /  10.4 °C 30.3in /  1026.4hPa West 4mph /  6.4km/h 7mph /  11.3km/h 47% 0in /  0.0mm 671 W/m2
12:29 72 °F /  22.2 °C 50.7 °F /  10.4 °C 30.3in /  1026.4hPa NNW 4.9mph /  7.9km/h 10mph /  16.1km/h 47% 0in /  0.0mm 679 W/m2
12:34 72.1 °F /  22.3 °C 49.6 °F /  9.8 °C 30.3in /  1026.4hPa West 6mph /  9.7km/h 7mph /  11.3km/h 45% 0in /  0.0mm 682 W/m2
12:39 72.7 °F /  22.6 °C 49.5 °F /  9.7 °C 30.3in /  1026.4hPa NW 2mph /  3.2km/h 7mph /  11.3km/h 44% 0in /  0.0mm 687 W/m2
12:44 72.9 °F /  22.7 °C 49.6 °F /  9.8 °C 30.3in /  1026.4hPa West 4mph /  6.4km/h 7mph /  11.3km/h 44% 0in /  0.0mm 691 W/m2
12:49 72.9 °F /  22.7 °C 49.1 °F /  9.5 °C 30.3in /  1026.1hPa SE 4.9mph /  7.9km/h 5mph /  8km/h 43% 0in /  0.0mm 698 W/m2
12:54 72.9 °F /  22.7 °C 49.1 °F /  9.5 °C 30.3in /  1026.1hPa NW 0.9mph /  1.4km/h 6mph /  9.7km/h 43% 0in /  0.0mm 701 W/m2
12:59 73 °F /  22.8 °C 49.3 °F /  9.6 °C 30.3in /  1026.1hPa WNW 2.9mph /  4.7km/h 6mph /  9.7km/h 43% 0in /  0.0mm 703 W/m2
13:04 73.2 °F /  22.9 °C 49.5 °F /  9.7 °C 30.3in /  1026.1hPa East 2mph /  3.2km/h 2mph /  3.2km/h 43% 0in /  0.0mm 708 W/m2
13:09 73.6 °F /  23.1 °C 49.1 °F /  9.5 °C 30.3in /  1026.1hPa SSW 2.9mph /  4.7km/h 7mph /  11.3km/h 42% 0in /  0.0mm 714 W/m2
13:14 73.6 °F /  23.1 °C 48.4 °F /  9.1 °C 30.3in /  1025.7hPa NNW 0.9mph /  1.4km/h 2mph /  3.2km/h 41% 0in /  0.0mm 712 W/m2
13:19 73.9 °F /  23.3 °C 49.5 °F /  9.7 °C 30.3in /  1025.7hPa SW 2mph /  3.2km/h 4mph /  6.4km/h 42% 0in /  0.0mm 717 W/m2
13:24 74.1 °F /  23.4 °C 49.6 °F /  9.8 °C 30.3in /  1026.1hPa West 2mph /  3.2km/h 2mph /  3.2km/h 42% 0in /  0.0mm 715 W/m2
13:29 74.3 °F /  23.5 °C 49.1 °F /  9.5 °C 30.3in /  1025.7hPa WNW 2.9mph /  4.7km/h 4mph /  6.4km/h 41% 0in /  0.0mm 717 W/m2
13:34 74.5 °F /  23.6 °C 49.3 °F /  9.6 °C 30.3in /  1025.7hPa NW 2mph /  3.2km/h 4mph /  6.4km/h 41% 0in /  0.0mm 717 W/m2
13:39 74.5 °F /  23.6 °C 49.3 °F /  9.6 °C 30.3in /  1025.7hPa NW 4.9mph /  7.9km/h 7mph /  11.3km/h 41% 0in /  0.0mm 719 W/m2
13:44 74.5 °F /  23.6 °C 48.6 °F /  9.2 °C 30.3in /  1025.7hPa NNW 2.9mph /  4.7km/h 4mph /  6.4km/h 40% 0in /  0.0mm 719 W/m2
13:49 74.5 °F /  23.6 °C 48.6 °F /  9.2 °C 30.3in /  1025.7hPa Calm   2mph /  3.2km/h 40% 0in /  0.0mm 717 W/m2
13:54 74.7 °F /  23.7 °C 48.7 °F /  9.3 °C 30.3in /  1025.7hPa WNW 4mph /  6.4km/h 10mph /  16.1km/h 40% 0in /  0.0mm 717 W/m2
13:59 74.7 °F /  23.7 °C 48.7 °F /  9.3 °C 30.3in /  1025.7hPa Calm   2mph /  3.2km/h 40% 0in /  0.0mm 717 W/m2
14:04 75 °F /  23.9 °C 49.6 °F /  9.8 °C 30.3in /  1025.4hPa NW 4.9mph /  7.9km/h 5mph /  8km/h 41% 0in /  0.0mm 715 W/m2
14:09 75 °F /  23.9 °C 48.4 °F /  9.1 °C 30.3in /  1025.4hPa NW 2.9mph /  4.7km/h 4mph /  6.4km/h 39% 0in /  0.0mm 717 W/m2
14:14 75.4 °F /  24.1 °C 48.7 °F /  9.3 °C 30.3in /  1025.4hPa Calm   2mph /  3.2km/h 39% 0in /  0.0mm 715 W/m2
14:19 75.7 °F /  24.3 °C 48.4 °F /  9.1 °C 30.3in /  1025.4hPa NW 0.9mph /  1.4km/h 7mph /  11.3km/h 38% 0in /  0.0mm 714 W/m2
14:24 75.9 °F /  24.4 °C 48.6 °F /  9.2 °C 30.3in /  1025.4hPa Calm   5mph /  8km/h 38% 0in /  0.0mm 710 W/m2
14:29 75.7 °F /  24.3 °C 48.4 °F /  9.1 °C 30.3in /  1025.4hPa Calm   3mph /  4.8km/h 38% 0in /  0.0mm 710 W/m2
14:34 75.9 °F /  24.4 °C 49.1 °F /  9.5 °C 30.3in /  1025.4hPa West 2mph /  3.2km/h 3mph /  4.8km/h 39% 0in /  0.0mm 708 W/m2
14:39 76.6 °F /  24.8 °C 48.4 °F /  9.1 °C 30.3in /  1025.1hPa NNW 2.9mph /  4.7km/h 3mph /  4.8km/h 37% 0in /  0.0mm 698 W/m2
14:44 76.8 °F /  24.9 °C 47.8 °F /  8.8 °C 30.3in /  1025.1hPa NW 2mph /  3.2km/h 3mph /  4.8km/h 36% 0in /  0.0mm 696 W/m2
14:49 77 °F /  25 °C 48 °F /  8.9 °C 30.3in /  1025.1hPa West 2.9mph /  4.7km/h 3mph /  4.8km/h 36% 0in /  0.0mm 691 W/m2
14:54 76.8 °F /  24.9 °C 47.8 °F /  8.8 °C 30.3in /  1025.1hPa West 4mph /  6.4km/h 4mph /  6.4km/h 36% 0in /  0.0mm 687 W/m2
14:59 76.5 °F /  24.7 °C 48.2 °F /  9 °C 30.3in /  1025.1hPa WNW 2.9mph /  4.7km/h 4mph /  6.4km/h 37% 0in /  0.0mm 680 W/m2
15:04 76.6 °F /  24.8 °C 47.7 °F /  8.7 °C 30.3in /  1025.1hPa North 0.9mph /  1.4km/h 4mph /  6.4km/h 36% 0in /  0.0mm 673 W/m2
15:09 76.8 °F /  24.9 °C 48.6 °F /  9.2 °C 30.3in /  1025.1hPa East 4mph /  6.4km/h 4mph /  6.4km/h 37% 0in /  0.0mm 670 W/m2
15:14 77.4 °F /  25.2 °C 48.4 °F /  9.1 °C 30.3in /  1025.1hPa West 0.9mph /  1.4km/h 4mph /  6.4km/h 36% 0in /  0.0mm 666 W/m2
15:19 77.5 °F /  25.3 °C 47.7 °F /  8.7 °C 30.3in /  1025.1hPa WNW 2mph /  3.2km/h 7mph /  11.3km/h 35% 0in /  0.0mm 661 W/m2
15:24 77.2 °F /  25.1 °C 47.5 °F /  8.6 °C 30.3in /  1025.1hPa NW 2.9mph /  4.7km/h 9mph /  14.5km/h 35% 0in /  0.0mm 652 W/m2
15:29 77 °F /  25 °C 48 °F /  8.9 °C 30.3in /  1025.1hPa West 4mph /  6.4km/h 7mph /  11.3km/h 36% 0in /  0.0mm 642 W/m2
15:34 77.2 °F /  25.1 °C 48.2 °F /  9 °C 30.3in /  1025.1hPa NNW 2mph /  3.2km/h 9mph /  14.5km/h 36% 0in /  0.0mm 635 W/m2
15:39 77.4 °F /  25.2 °C 48.4 °F /  9.1 °C 30.3in /  1025.1hPa WNW 0.9mph /  1.4km/h 2mph /  3.2km/h 36% 0in /  0.0mm 628 W/m2
15:44 77.7 °F /  25.4 °C 48.6 °F /  9.2 °C 30.3in /  1025.1hPa West 4mph /  6.4km/h 6mph /  9.7km/h 36% 0in /  0.0mm 622 W/m2
15:49 78.1 °F /  25.6 °C 48.9 °F /  9.4 °C 30.3in /  1024.7hPa NW 0.9mph /  1.4km/h 3mph /  4.8km/h 36% 0in /  0.0mm 612 W/m2
15:54 78.6 °F /  25.9 °C 49.5 °F /  9.7 °C 30.3in /  1024.7hPa NW 4mph /  6.4km/h 6mph /  9.7km/h 36% 0in /  0.0mm 605 W/m2
15:59 78.4 °F /  25.8 °C 48.6 °F /  9.2 °C 30.3in /  1024.7hPa North 0.9mph /  1.4km/h 7mph /  11.3km/h 35% 0in /  0.0mm 598 W/m2
16:04 78.4 °F /  25.8 °C 48.6 °F /  9.2 °C 30.3in /  1024.7hPa Calm   4mph /  6.4km/h 35% 0in /  0.0mm 587 W/m2
16:09 78.6 °F /  25.9 °C 48.7 °F /  9.3 °C 30.3in /  1024.7hPa West 0.9mph /  1.4km/h 1mph /  1.6km/h 35% 0in /  0.0mm 578 W/m2
16:14 79 °F /  26.1 °C 48.9 °F /  9.4 °C 30.3in /  1024.7hPa West 2mph /  3.2km/h 7mph /  11.3km/h 35% 0in /  0.0mm 571 W/m2
16:19 79 °F /  26.1 °C 48.9 °F /  9.4 °C 30.3in /  1024.7hPa WSW 4.9mph /  7.9km/h 7mph /  11.3km/h 35% 0in /  0.0mm 563 W/m2
16:24 78.6 °F /  25.9 °C 47.8 °F /  8.8 °C 30.3in /  1024.4hPa NNW 2.9mph /  4.7km/h 8mph /  12.9km/h 34% 0in /  0.0mm 550 W/m2
16:30 78.6 °F /  25.9 °C 47.8 °F /  8.8 °C 30.3in /  1024.4hPa West 2mph /  3.2km/h 6mph /  9.7km/h 34% 0in /  0.0mm 550 W/m2
16:35 79 °F /  26.1 °C 47.5 °F /  8.6 °C 30.3in /  1024.4hPa Calm   8mph /  12.9km/h 33% 0in /  0.0mm 538 W/m2
16:40 79.3 °F /  26.3 °C 49.3 °F /  9.6 °C 30.3in /  1024.4hPa NNE 0.9mph /  1.4km/h 2mph /  3.2km/h 35% 0in /  0.0mm 527 W/m2
16:45 79.9 °F /  26.6 °C 48.2 °F /  9 °C 30.3in /  1024.4hPa WNW 2mph /  3.2km/h 8mph /  12.9km/h 33% 0in /  0.0mm 519 W/m2
16:50 79.7 °F /  26.5 °C 47.3 °F /  8.5 °C 30.3in /  1024.4hPa Calm   3mph /  4.8km/h 32% 0in /  0.0mm 508 W/m2
16:55 79.5 °F /  26.4 °C 47.8 °F /  8.8 °C 30.3in /  1024.4hPa SW 2mph /  3.2km/h 8mph /  12.9km/h 33% 0in /  0.0mm 497 W/m2
17:00 79.9 °F /  26.6 °C 48.9 °F /  9.4 °C 30.3in /  1024.4hPa WNW 2.9mph /  4.7km/h 5mph /  8km/h 34% 0in /  0.0mm 483 W/m2
17:05 79.7 °F /  26.5 °C 48 °F /  8.9 °C 30.3in /  1024.4hPa NNW 2mph /  3.2km/h 7mph /  11.3km/h 33% 0in /  0.0mm 471 W/m2
17:10 79.3 °F /  26.3 °C 47.7 °F /  8.7 °C 30.2in /  1024.0hPa NW 2.9mph /  4.7km/h 3mph /  4.8km/h 33% 0in /  0.0mm 459 W/m2
17:15 79.3 °F /  26.3 °C 47.7 °F /  8.7 °C 30.2in /  1024.0hPa NNW 2.9mph /  4.7km/h 6mph /  9.7km/h 33% 0in /  0.0mm 448 W/m2
17:20 79.3 °F /  26.3 °C 47.7 °F /  8.7 °C 30.2in /  1024.0hPa NNW 2mph /  3.2km/h 2mph /  3.2km/h 33% 0in /  0.0mm 432 W/m2
17:25 79.5 °F /  26.4 °C 48.7 °F /  9.3 °C 30.2in /  1024.0hPa Calm   2mph /  3.2km/h 34% 0in /  0.0mm 420 W/m2
17:30 80.2 °F /  26.8 °C 50.2 °F /  10.1 °C 30.2in /  1024.0hPa Calm   2mph /  3.2km/h 35% 0in /  0.0mm 411 W/m2
17:35 80.8 °F /  27.1 °C 48.9 °F /  9.4 °C 30.2in /  1024.0hPa West 2.9mph /  4.7km/h 4mph /  6.4km/h 33% 0in /  0.0mm 394 W/m2
17:40 80.6 °F /  27 °C 48.9 °F /  9.4 °C 30.2in /  1024.0hPa SSE 0.9mph /  1.4km/h 5mph /  8km/h 33% 0in /  0.0mm 378 W/m2
17:45 80.4 °F /  26.9 °C 48.7 °F /  9.3 °C 30.2in /  1024.0hPa WSW 0.9mph /  1.4km/h 3mph /  4.8km/h 33% 0in /  0.0mm 364 W/m2
17:50 80.8 °F /  27.1 °C 48.9 °F /  9.4 °C 30.2in /  1024.0hPa West 2mph /  3.2km/h 5mph /  8km/h 33% 0in /  0.0mm 352 W/m2
17:55 80.8 °F /  27.1 °C 48.9 °F /  9.4 °C 30.2in /  1024.0hPa NW 2.9mph /  4.7km/h 6mph /  9.7km/h 33% 0in /  0.0mm 339 W/m2
18:00 80.1 °F /  26.7 °C 49.1 °F /  9.5 °C 30.2in /  1024.0hPa WNW 0.9mph /  1.4km/h 7mph /  11.3km/h 34% 0in /  0.0mm 325 W/m2
18:05 79.9 °F /  26.6 °C 48.9 °F /  9.4 °C 30.2in /  1024.0hPa NW 2mph /  3.2km/h 4mph /  6.4km/h 34% 0in /  0.0mm 309 W/m2
18:10 80.1 °F /  26.7 °C 49.1 °F /  9.5 °C 30.2in /  1024.0hPa WNW 6mph /  9.7km/h 7mph /  11.3km/h 34% 0in /  0.0mm 294 W/m2
18:15 79.9 °F /  26.6 °C 49.8 °F /  9.9 °C 30.2in /  1023.7hPa West 2mph /  3.2km/h 2mph /  3.2km/h 35% 0in /  0.0mm 279 W/m2
18:20 80.1 °F /  26.7 °C 49.1 °F /  9.5 °C 30.2in /  1023.7hPa NNW 7mph /  11.3km/h 7mph /  11.3km/h 34% 0in /  0.0mm 262 W/m2
18:25 80.2 °F /  26.8 °C 50.2 °F /  10.1 °C 30.2in /  1023.7hPa West 2mph /  3.2km/h 2mph /  3.2km/h 35% 0in /  0.0mm 248 W/m2
18:30 80.2 °F /  26.8 °C 50.9 °F /  10.5 °C 30.2in /  1023.7hPa West 0.9mph /  1.4km/h 3mph /  4.8km/h 36% 0in /  0.0mm 232 W/m2
18:35 80.2 °F /  26.8 °C 50.2 °F /  10.1 °C 30.2in /  1023.7hPa West 0.9mph /  1.4km/h 2mph /  3.2km/h 35% 0in /  0.0mm 218 W/m2
18:40 80.4 °F /  26.9 °C 51.1 °F /  10.6 °C 30.2in /  1023.7hPa Calm   1mph /  1.6km/h 36% 0in /  0.0mm 204 W/m2
18:45 80.2 °F /  26.8 °C 50.9 °F /  10.5 °C 30.2in /  1023.7hPa Calm   3mph /  4.8km/h 36% 0in /  0.0mm 190 W/m2
18:50 80.1 °F /  26.7 °C 50.7 °F /  10.4 °C 30.2in /  1023.7hPa NNW 0.9mph /  1.4km/h 3mph /  4.8km/h 36% 0in /  0.0mm 174 W/m2
18:55 79.3 °F /  26.3 °C 50.7 °F /  10.4 °C 30.2in /  1023.7hPa West 2mph /  3.2km/h 3mph /  4.8km/h 37% 0in /  0.0mm 158 W/m2
19:00 79 °F /  26.1 °C 51.3 °F /  10.7 °C 30.2in /  1023.7hPa Calm   1mph /  1.6km/h 38% 0in /  0.0mm 142 W/m2
19:05 78.8 °F /  26 °C 51.1 °F /  10.6 °C 30.2in /  1023.7hPa WSW 2mph /  3.2km/h 2mph /  3.2km/h 38% 0in /  0.0mm 127 W/m2
19:10 78.6 °F /  25.9 °C 51.6 °F /  10.9 °C 30.2in /  1023.7hPa WSW 0.9mph /  1.4km/h 2mph /  3.2km/h 39% 0in /  0.0mm 107 W/m2
19:15 78.3 °F /  25.7 °C 52 °F /  11.1 °C 30.2in /  1023.7hPa WSW 0.9mph /  1.4km/h 2mph /  3.2km/h 40% 0in /  0.0mm 42 W/m2
19:20 77.7 °F /  25.4 °C 52.9 °F /  11.6 °C 30.2in /  1023.7hPa Calm     42% 0in /  0.0mm 19 W/m2
19:25 76.8 °F /  24.9 °C 52.7 °F /  11.5 °C 30.2in /  1023.7hPa WSW 0.9mph /  1.4km/h 2mph /  3.2km/h 43% 0in /  0.0mm 18 W/m2
19:30 75.7 °F /  24.3 °C 52.3 °F /  11.3 °C 30.2in /  1023.7hPa Calm   1mph /  1.6km/h 44% 0in /  0.0mm 16 W/m2
19:35 74.8 °F /  23.8 °C 51.4 °F /  10.8 °C 30.2in /  1023.7hPa WSW 2mph /  3.2km/h 2mph /  3.2km/h 44% 0in /  0.0mm 14 W/m2
19:40 74.1 °F /  23.4 °C 51.4 °F /  10.8 °C 30.2in /  1023.7hPa WSW 0.9mph /  1.4km/h 1mph /  1.6km/h 45% 0in /  0.0mm 12 W/m2
19:45 73.6 °F /  23.1 °C 51.4 °F /  10.8 °C 30.2in /  1023.7hPa WSW 0.9mph /  1.4km/h 2mph /  3.2km/h 46% 0in /  0.0mm 11 W/m2
19:50 73 °F /  22.8 °C 51.1 °F /  10.6 °C 30.2in /  1023.7hPa WSW 0.9mph /  1.4km/h 3mph /  4.8km/h 46% 0in /  0.0mm 9 W/m2
19:56 72.3 °F /  22.4 °C 50.9 °F /  10.5 °C 30.2in /  1023.7hPa Calm   2mph /  3.2km/h 47% 0in /  0.0mm 7 W/m2
20:01 72 °F /  22.2 °C 50.7 °F /  10.4 °C 30.2in /  1023.7hPa West 2.9mph /  4.7km/h 3mph /  4.8km/h 47% 0in /  0.0mm 5 W/m2
20:06 71.6 °F /  22 °C 50.9 °F /  10.5 °C 30.2in /  1024.0hPa WSW 0.9mph /  1.4km/h 2mph /  3.2km/h 48% 0in /  0.0mm 0 W/m2
20:11 71.2 °F /  21.8 °C 51.1 °F /  10.6 °C 30.2in /  1024.0hPa WNW 0.9mph /  1.4km/h 2mph /  3.2km/h 49% 0in /  0.0mm 0 W/m2
20:16 70.9 °F /  21.6 °C 50.7 °F /  10.4 °C 30.2in /  1024.0hPa WSW 2mph /  3.2km/h 2mph /  3.2km/h 49% 0in /  0.0mm 0 W/m2
20:21 70.5 °F /  21.4 °C 50.9 °F /  10.5 °C 30.2in /  1024.0hPa Calm   2mph /  3.2km/h 50% 0in /  0.0mm 0 W/m2
20:26 70.2 °F /  21.2 °C 51.3 °F /  10.7 °C 30.2in /  1024.0hPa Calm   1mph /  1.6km/h 51% 0in /  0.0mm 0 W/m2
20:31 70 °F /  21.1 °C 51.1 °F /  10.6 °C 30.2in /  1024.0hPa Calm   1mph /  1.6km/h 51% 0in /  0.0mm 0 W/m2
20:36 69.4 °F /  20.8 °C 51.6 °F /  10.9 °C 30.2in /  1024.0hPa Calm     53% 0in /  0.0mm 0 W/m2
20:41 69.1 °F /  20.6 °C 51.8 °F /  11 °C 30.2in /  1024.0hPa Calm     54% 0in /  0.0mm 0 W/m2
20:46 68.5 °F /  20.3 °C 51.3 °F /  10.7 °C 30.2in /  1024.0hPa Calm     54% 0in /  0.0mm 0 W/m2
20:51 68.4 °F /  20.2 °C 52 °F /  11.1 °C 30.2in /  1024.0hPa Calm     56% 0in /  0.0mm 0 W/m2
20:56 67.8 °F /  19.9 °C 51.6 °F /  10.9 °C 30.3in /  1024.4hPa Calm     56% 0in /  0.0mm 0 W/m2
21:01 67.5 °F /  19.7 °C 51.6 °F /  10.9 °C 30.3in /  1024.4hPa Calm     57% 0in /  0.0mm 0 W/m2
21:06 67.1 °F /  19.5 °C 51.8 °F /  11 °C 30.3in /  1024.4hPa Calm     58% 0in /  0.0mm 0 W/m2
21:11 66.7 °F /  19.3 °C 52 °F /  11.1 °C 30.3in /  1024.4hPa Calm     59% 0in /  0.0mm 0 W/m2
21:16 66.4 °F /  19.1 °C 52.2 °F /  11.2 °C 30.3in /  1024.4hPa Calm     60% 0in /  0.0mm 0 W/m2
21:21 66 °F /  18.9 °C 52.2 °F /  11.2 °C 30.3in /  1024.4hPa Calm     61% 0in /  0.0mm 0 W/m2
21:26 65.8 °F /  18.8 °C 52 °F /  11.1 °C 30.3in /  1024.4hPa Calm     61% 0in /  0.0mm 0 W/m2
21:31 65.7 °F /  18.7 °C 52.3 °F /  11.3 °C 30.3in /  1024.4hPa Calm     62% 0in /  0.0mm 0 W/m2
21:36 65.5 °F /  18.6 °C 52.2 °F /  11.2 °C 30.3in /  1024.4hPa Calm     62% 0in /  0.0mm 0 W/m2
21:41 65.1 °F /  18.4 °C 52.2 °F /  11.2 °C 30.3in /  1024.4hPa Calm     63% 0in /  0.0mm 0 W/m2
21:47 64.9 °F /  18.3 °C 52 °F /  11.1 °C 30.3in /  1024.4hPa Calm     63% 0in /  0.0mm 0 W/m2
21:52 64.8 °F /  18.2 °C 52.3 °F /  11.3 °C 30.3in /  1024.4hPa Calm     64% 0in /  0.0mm 0 W/m2
21:57 64.4 °F /  18 °C 52.3 °F /  11.3 °C 30.3in /  1024.4hPa Calm     65% 0in /  0.0mm 0 W/m2
22:02 64.2 °F /  17.9 °C 52.2 °F /  11.2 °C 30.3in /  1024.4hPa Calm     65% 0in /  0.0mm 0 W/m2
22:07 64 °F /  17.8 °C 52.5 °F /  11.4 °C 30.3in /  1024.4hPa Calm     66% 0in /  0.0mm 0 W/m2
22:12 63.9 °F /  17.7 °C 52.7 °F /  11.5 °C 30.3in /  1024.4hPa Calm     67% 0in /  0.0mm 0 W/m2
22:17 63.7 °F /  17.6 °C 52.5 °F /  11.4 °C 30.3in /  1024.4hPa Calm     67% 0in /  0.0mm 0 W/m2
22:22 63.3 °F /  17.4 °C 52.2 °F /  11.2 °C 30.3in /  1024.4hPa Calm     67% 0in /  0.0mm 0 W/m2
22:27 63.1 °F /  17.3 °C 52.3 °F /  11.3 °C 30.3in /  1024.4hPa Calm     68% 0in /  0.0mm 0 W/m2
22:32 63 °F /  17.2 °C 52.7 °F /  11.5 °C 30.3in /  1024.4hPa Calm     69% 0in /  0.0mm 0 W/m2
22:37 62.8 °F /  17.1 °C 52.9 °F /  11.6 °C 30.3in /  1024.4hPa Calm     70% 0in /  0.0mm 0 W/m2
22:42 62.4 °F /  16.9 °C 52.5 °F /  11.4 °C 30.3in /  1024.4hPa Calm     70% 0in /  0.0mm 0 W/m2
22:47 62.2 °F /  16.8 °C 52.7 °F /  11.5 °C 30.3in /  1024.4hPa Calm     71% 0in /  0.0mm 0 W/m2
22:52 62.2 °F /  16.8 °C 52.7 °F /  11.5 °C 30.3in /  1024.4hPa Calm     71% 0in /  0.0mm 0 W/m2
22:57 62.1 °F /  16.7 °C 52.9 °F /  11.6 °C 30.3in /  1024.4hPa Calm     72% 0in /  0.0mm 0 W/m2
23:02 62.1 °F /  16.7 °C 52.9 °F /  11.6 °C 30.3in /  1024.4hPa Calm     72% 0in /  0.0mm 0 W/m2
23:07 62.1 °F /  16.7 °C 53.2 °F /  11.8 °C 30.3in /  1024.4hPa Calm     73% 0in /  0.0mm 0 W/m2
23:12 61.9 °F /  16.6 °C 52.7 °F /  11.5 °C 30.3in /  1024.4hPa Calm     72% 0in /  0.0mm 0 W/m2
23:17 61.9 °F /  16.6 °C 52.7 °F /  11.5 °C 30.3in /  1024.4hPa Calm     72% 0in /  0.0mm 0 W/m2
23:22 61.5 °F /  16.4 °C 52.3 °F /  11.3 °C 30.3in /  1024.4hPa Calm     72% 0in /  0.0mm 0 W/m2
23:27 61.5 °F /  16.4 °C 52.7 °F /  11.5 °C 30.3in /  1024.4hPa Calm     73% 0in /  0.0mm 0 W/m2
23:32 61.5 °F /  16.4 °C 52.7 °F /  11.5 °C 30.3in /  1024.4hPa Calm     73% 0in /  0.0mm 0 W/m2
23:38 61.3 °F /  16.3 °C 53.1 °F /  11.7 °C 30.2in /  1024.0hPa Calm     74% 0in /  0.0mm 0 W/m2
23:43 61.3 °F /  16.3 °C 53.1 °F /  11.7 °C 30.2in /  1024.0hPa Calm     74% 0in /  0.0mm 0 W/m2
23:48 61.2 °F /  16.2 °C 53.2 °F /  11.8 °C 30.3in /  1024.4hPa Calm     75% 0in /  0.0mm 0 W/m2
23:53 61.2 °F /  16.2 °C 53.2 °F /  11.8 °C 30.3in /  1024.4hPa Calm     75% 0in /  0.0mm 0 W/m2
23:58 61 °F /  16.1 °C 53.1 °F /  11.7 °C 30.3in /  1024.4hPa Calm     75% 0in /  0.0mm 0 W/m2
Juneau County Weather
Compliments of Weather Underground - 4 mb